sensor_id;sensor_type;location;lat;lon;timestamp;temperature;humidity
21481;DHT22;10902;48.158;8.634;2023-04-25T00:02:20;5.60;99.90
21481;DHT22;10902;48.158;8.634;2023-04-25T00:04:46;5.60;99.90
21481;DHT22;10902;48.158;8.634;2023-04-25T00:07:14;5.60;99.90
21481;DHT22;10902;48.158;8.634;2023-04-25T00:09:39;5.60;99.90
21481;DHT22;10902;48.158;8.634;2023-04-25T00:12:05;5.60;99.90
21481;DHT22;10902;48.158;8.634;2023-04-25T00:14:31;5.60;99.90
21481;DHT22;10902;48.158;8.634;2023-04-25T00:16:59;5.60;99.90
21481;DHT22;10902;48.158;8.634;2023-04-25T00:19:26;5.60;99.90
21481;DHT22;10902;48.158;8.634;2023-04-25T00:21:56;5.60;99.90
21481;DHT22;10902;48.158;8.634;2023-04-25T00:24:22;5.60;99.90
21481;DHT22;10902;48.158;8.634;2023-04-25T00:26:48;5.60;99.90
21481;DHT22;10902;48.158;8.634;2023-04-25T00:29:14;5.60;99.90
21481;DHT22;10902;48.158;8.634;2023-04-25T00:31:39;5.60;99.90
21481;DHT22;10902;48.158;8.634;2023-04-25T00:34:06;5.50;99.90
21481;DHT22;10902;48.158;8.634;2023-04-25T00:36:32;5.50;99.90
21481;DHT22;10902;48.158;8.634;2023-04-25T00:38:58;5.40;99.90
21481;DHT22;10902;48.158;8.634;2023-04-25T00:41:25;5.40;99.90
21481;DHT22;10902;48.158;8.634;2023-04-25T00:43:52;5.30;99.90
21481;DHT22;10902;48.158;8.634;2023-04-25T00:46:18;5.30;99.90
21481;DHT22;10902;48.158;8.634;2023-04-25T00:48:44;5.30;99.90
21481;DHT22;10902;48.158;8.634;2023-04-25T00:51:13;5.20;99.90
21481;DHT22;10902;48.158;8.634;2023-04-25T00:53:41;5.20;99.90
21481;DHT22;10902;48.158;8.634;2023-04-25T00:56:07;5.10;99.90
21481;DHT22;10902;48.158;8.634;2023-04-25T00:58:32;5.20;99.90
21481;DHT22;10902;48.158;8.634;2023-04-25T01:00:58;5.20;99.90
21481;DHT22;10902;48.158;8.634;2023-04-25T01:03:24;5.30;99.90
21481;DHT22;10902;48.158;8.634;2023-04-25T01:05:51;5.30;99.90
21481;DHT22;10902;48.158;8.634;2023-04-25T01:08:17;5.40;99.90
21481;DHT22;10902;48.158;8.634;2023-04-25T01:10:42;5.30;99.90
21481;DHT22;10902;48.158;8.634;2023-04-25T01:13:08;5.20;99.90
21481;DHT22;10902;48.158;8.634;2023-04-25T01:15:34;5.10;99.90
21481;DHT22;10902;48.158;8.634;2023-04-25T01:18:01;5.10;99.90
21481;DHT22;10902;48.158;8.634;2023-04-25T01:20:27;4.90;99.90
21481;DHT22;10902;48.158;8.634;2023-04-25T01:22:55;4.80;99.90
21481;DHT22;10902;48.158;8.634;2023-04-25T01:25:21;4.70;99.90
21481;DHT22;10902;48.158;8.634;2023-04-25T01:27:47;4.60;99.90
21481;DHT22;10902;48.158;8.634;2023-04-25T01:30:13;4.60;99.90
21481;DHT22;10902;48.158;8.634;2023-04-25T01:32:40;4.50;99.90
21481;DHT22;10902;48.158;8.634;2023-04-25T01:35:09;4.50;99.90
21481;DHT22;10902;48.158;8.634;2023-04-25T01:37:40;4.50;99.90
21481;DHT22;10902;48.158;8.634;2023-04-25T01:40:06;4.50;99.90
21481;DHT22;10902;48.158;8.634;2023-04-25T01:42:33;4.50;99.90
21481;DHT22;10902;48.158;8.634;2023-04-25T01:45:00;4.50;99.90
21481;DHT22;10902;48.158;8.634;2023-04-25T01:47:25;4.40;99.90
21481;DHT22;10902;48.158;8.634;2023-04-25T01:49:51;4.40;99.90
21481;DHT22;10902;48.158;8.634;2023-04-25T01:52:16;4.40;99.90
21481;DHT22;10902;48.158;8.634;2023-04-25T01:54:42;4.40;99.90
21481;DHT22;10902;48.158;8.634;2023-04-25T01:57:11;4.30;99.90
21481;DHT22;10902;48.158;8.634;2023-04-25T01:59:37;4.30;99.90
21481;DHT22;10902;48.158;8.634;2023-04-25T02:02:02;4.20;99.90
21481;DHT22;10902;48.158;8.634;2023-04-25T02:04:29;4.20;99.90
21481;DHT22;10902;48.158;8.634;2023-04-25T02:06:55;4.20;99.90
21481;DHT22;10902;48.158;8.634;2023-04-25T02:09:21;4.20;99.90
21481;DHT22;10902;48.158;8.634;2023-04-25T02:11:47;4.20;99.90
21481;DHT22;10902;48.158;8.634;2023-04-25T02:14:12;4.10;99.90
21481;DHT22;10902;48.158;8.634;2023-04-25T02:16:38;4.10;99.90
21481;DHT22;10902;48.158;8.634;2023-04-25T02:19:05;4.10;99.90
21481;DHT22;10902;48.158;8.634;2023-04-25T02:21:30;4.10;99.90
21481;DHT22;10902;48.158;8.634;2023-04-25T02:23:57;4.10;99.90
21481;DHT22;10902;48.158;8.634;2023-04-25T02:26:22;4.10;99.90
21481;DHT22;10902;48.158;8.634;2023-04-25T02:28:49;4.00;99.90
21481;DHT22;10902;48.158;8.634;2023-04-25T02:31:16;3.90;99.90
21481;DHT22;10902;48.158;8.634;2023-04-25T02:33:41;3.90;99.90
21481;DHT22;10902;48.158;8.634;2023-04-25T02:36:07;3.80;99.90
21481;DHT22;10902;48.158;8.634;2023-04-25T02:38:33;3.80;99.90
21481;DHT22;10902;48.158;8.634;2023-04-25T02:41:00;3.80;99.90
21481;DHT22;10902;48.158;8.634;2023-04-25T02:43:25;3.80;99.90
21481;DHT22;10902;48.158;8.634;2023-04-25T02:45:51;3.80;99.90
21481;DHT22;10902;48.158;8.634;2023-04-25T02:48:17;3.70;99.90
21481;DHT22;10902;48.158;8.634;2023-04-25T02:50:42;3.70;99.90
21481;DHT22;10902;48.158;8.634;2023-04-25T02:53:08;3.70;99.90
21481;DHT22;10902;48.158;8.634;2023-04-25T02:55:34;3.60;99.90
21481;DHT22;10902;48.158;8.634;2023-04-25T02:57:59;3.60;99.90
21481;DHT22;10902;48.158;8.634;2023-04-25T03:00:25;3.60;99.90
21481;DHT22;10902;48.158;8.634;2023-04-25T03:02:51;3.60;99.90
21481;DHT22;10902;48.158;8.634;2023-04-25T03:05:17;3.60;99.90
21481;DHT22;10902;48.158;8.634;2023-04-25T03:07:42;3.60;99.90
21481;DHT22;10902;48.158;8.634;2023-04-25T03:10:10;3.60;99.90
21481;DHT22;10902;48.158;8.634;2023-04-25T03:12:36;3.60;99.90
21481;DHT22;10902;48.158;8.634;2023-04-25T03:15:01;3.50;99.90
21481;DHT22;10902;48.158;8.634;2023-04-25T03:17:27;3.50;99.90
21481;DHT22;10902;48.158;8.634;2023-04-25T03:19:53;3.50;99.90
21481;DHT22;10902;48.158;8.634;2023-04-25T03:22:18;3.40;99.90
21481;DHT22;10902;48.158;8.634;2023-04-25T03:24:44;3.40;99.90
21481;DHT22;10902;48.158;8.634;2023-04-25T03:27:09;3.30;99.90
21481;DHT22;10902;48.158;8.634;2023-04-25T03:29:35;3.30;99.90
21481;DHT22;10902;48.158;8.634;2023-04-25T03:32:01;3.30;99.90
21481;DHT22;10902;48.158;8.634;2023-04-25T03:34:26;3.20;99.90
21481;DHT22;10902;48.158;8.634;2023-04-25T03:36:52;3.20;99.90
21481;DHT22;10902;48.158;8.634;2023-04-25T03:39:17;3.20;99.90
21481;DHT22;10902;48.158;8.634;2023-04-25T03:41:43;3.20;99.90
21481;DHT22;10902;48.158;8.634;2023-04-25T03:44:08;3.20;99.90
21481;DHT22;10902;48.158;8.634;2023-04-25T03:46:34;3.20;99.90
21481;DHT22;10902;48.158;8.634;2023-04-25T03:48:59;3.20;99.90
21481;DHT22;10902;48.158;8.634;2023-04-25T03:51:25;3.10;99.90
21481;DHT22;10902;48.158;8.634;2023-04-25T03:53:52;3.10;99.90
21481;DHT22;10902;48.158;8.634;2023-04-25T03:56:17;3.10;99.90
21481;DHT22;10902;48.158;8.634;2023-04-25T03:58:43;3.20;99.90
21481;DHT22;10902;48.158;8.634;2023-04-25T04:01:09;3.20;99.90
21481;DHT22;10902;48.158;8.634;2023-04-25T04:03:35;3.20;99.90
21481;DHT22;10902;48.158;8.634;2023-04-25T04:06:04;3.10;99.90
21481;DHT22;10902;48.158;8.634;2023-04-25T04:08:31;3.10;99.90
21481;DHT22;10902;48.158;8.634;2023-04-25T04:10:58;3.10;99.90
21481;DHT22;10902;48.158;8.634;2023-04-25T04:13:26;3.10;99.90
21481;DHT22;10902;48.158;8.634;2023-04-25T04:15:52;3.10;99.90
21481;DHT22;10902;48.158;8.634;2023-04-25T04:18:17;3.10;99.90
21481;DHT22;10902;48.158;8.634;2023-04-25T04:20:43;3.10;99.90
21481;DHT22;10902;48.158;8.634;2023-04-25T04:23:08;3.00;99.90
21481;DHT22;10902;48.158;8.634;2023-04-25T04:25:34;3.00;99.90
21481;DHT22;10902;48.158;8.634;2023-04-25T04:28:00;3.00;99.90
21481;DHT22;10902;48.158;8.634;2023-04-25T04:30:26;3.00;99.90
21481;DHT22;10902;48.158;8.634;2023-04-25T04:32:56;3.10;99.90
21481;DHT22;10902;48.158;8.634;2023-04-25T04:35:23;3.10;99.90
21481;DHT22;10902;48.158;8.634;2023-04-25T04:37:49;3.10;99.90
21481;DHT22;10902;48.158;8.634;2023-04-25T04:40:15;3.20;99.90
21481;DHT22;10902;48.158;8.634;2023-04-25T04:42:41;3.20;99.90
21481;DHT22;10902;48.158;8.634;2023-04-25T04:45:08;3.20;99.90
21481;DHT22;10902;48.158;8.634;2023-04-25T04:47:33;3.20;99.90
21481;DHT22;10902;48.158;8.634;2023-04-25T04:49:59;3.20;99.90
21481;DHT22;10902;48.158;8.634;2023-04-25T04:52:25;3.30;99.90
21481;DHT22;10902;48.158;8.634;2023-04-25T04:54:50;3.30;99.90
21481;DHT22;10902;48.158;8.634;2023-04-25T04:57:16;3.30;99.90
21481;DHT22;10902;48.158;8.634;2023-04-25T04:59:44;3.30;99.90
21481;DHT22;10902;48.158;8.634;2023-04-25T05:02:10;3.30;99.90
21481;DHT22;10902;48.158;8.634;2023-04-25T05:04:35;3.30;99.90
21481;DHT22;10902;48.158;8.634;2023-04-25T05:07:01;3.30;99.90
21481;DHT22;10902;48.158;8.634;2023-04-25T05:09:27;3.30;99.90
21481;DHT22;10902;48.158;8.634;2023-04-25T05:11:52;3.40;99.90
21481;DHT22;10902;48.158;8.634;2023-04-25T05:14:18;3.30;99.90
21481;DHT22;10902;48.158;8.634;2023-04-25T05:16:44;3.30;99.90
21481;DHT22;10902;48.158;8.634;2023-04-25T05:19:09;3.30;99.90
21481;DHT22;10902;48.158;8.634;2023-04-25T05:21:35;3.40;99.90
21481;DHT22;10902;48.158;8.634;2023-04-25T05:24:01;3.40;99.90
21481;DHT22;10902;48.158;8.634;2023-04-25T05:26:27;3.40;99.90
21481;DHT22;10902;48.158;8.634;2023-04-25T05:28:59;3.50;99.90
21481;DHT22;10902;48.158;8.634;2023-04-25T05:31:25;3.50;99.90
21481;DHT22;10902;48.158;8.634;2023-04-25T05:33:51;3.60;99.90
21481;DHT22;10902;48.158;8.634;2023-04-25T05:36:18;3.60;99.90
21481;DHT22;10902;48.158;8.634;2023-04-25T05:38:44;3.70;99.90
21481;DHT22;10902;48.158;8.634;2023-04-25T05:41:09;3.80;99.90
21481;DHT22;10902;48.158;8.634;2023-04-25T05:43:35;4.00;99.90
21481;DHT22;10902;48.158;8.634;2023-04-25T05:46:01;4.00;99.90
21481;DHT22;10902;48.158;8.634;2023-04-25T05:48:26;4.10;99.90
21481;DHT22;10902;48.158;8.634;2023-04-25T05:50:52;4.10;99.90
21481;DHT22;10902;48.158;8.634;2023-04-25T05:53:19;4.10;99.90
21481;DHT22;10902;48.158;8.634;2023-04-25T05:55:44;4.20;99.90
21481;DHT22;10902;48.158;8.634;2023-04-25T05:58:10;4.10;99.90
21481;DHT22;10902;48.158;8.634;2023-04-25T06:00:35;4.00;99.90
21481;DHT22;10902;48.158;8.634;2023-04-25T06:03:01;4.00;99.90
21481;DHT22;10902;48.158;8.634;2023-04-25T06:05:27;4.10;99.90
21481;DHT22;10902;48.158;8.634;2023-04-25T06:07:53;4.10;99.90
21481;DHT22;10902;48.158;8.634;2023-04-25T06:10:18;4.10;99.90
21481;DHT22;10902;48.158;8.634;2023-04-25T06:12:44;4.20;99.90
21481;DHT22;10902;48.158;8.634;2023-04-25T06:15:10;4.20;99.90
21481;DHT22;10902;48.158;8.634;2023-04-25T06:17:36;4.20;99.90
21481;DHT22;10902;48.158;8.634;2023-04-25T06:20:02;4.30;99.90
21481;DHT22;10902;48.158;8.634;2023-04-25T06:22:29;4.30;99.90
21481;DHT22;10902;48.158;8.634;2023-04-25T06:24:54;4.20;99.90
21481;DHT22;10902;48.158;8.634;2023-04-25T06:27:22;4.30;99.90
21481;DHT22;10902;48.158;8.634;2023-04-25T06:29:48;4.30;99.90
21481;DHT22;10902;48.158;8.634;2023-04-25T06:32:13;4.30;99.90
21481;DHT22;10902;48.158;8.634;2023-04-25T06:34:39;4.30;99.90
21481;DHT22;10902;48.158;8.634;2023-04-25T06:37:05;4.40;99.90
21481;DHT22;10902;48.158;8.634;2023-04-25T06:39:30;4.40;99.90
21481;DHT22;10902;48.158;8.634;2023-04-25T06:41:56;4.40;99.90
21481;DHT22;10902;48.158;8.634;2023-04-25T06:44:21;4.40;99.90
21481;DHT22;10902;48.158;8.634;2023-04-25T06:46:49;4.50;99.90
21481;DHT22;10902;48.158;8.634;2023-04-25T06:49:15;4.50;99.90
21481;DHT22;10902;48.158;8.634;2023-04-25T06:51:41;4.60;99.90
21481;DHT22;10902;48.158;8.634;2023-04-25T06:54:06;4.60;99.90
21481;DHT22;10902;48.158;8.634;2023-04-25T06:56:32;4.70;99.90
21481;DHT22;10902;48.158;8.634;2023-04-25T06:58:58;4.70;99.90
21481;DHT22;10902;48.158;8.634;2023-04-25T07:01:23;4.70;99.90
21481;DHT22;10902;48.158;8.634;2023-04-25T07:03:49;4.70;99.90
21481;DHT22;10902;48.158;8.634;2023-04-25T07:06:15;4.70;99.90
21481;DHT22;10902;48.158;8.634;2023-04-25T07:08:40;4.70;99.90
21481;DHT22;10902;48.158;8.634;2023-04-25T07:11:06;4.80;99.90
21481;DHT22;10902;48.158;8.634;2023-04-25T07:13:32;4.80;99.90
21481;DHT22;10902;48.158;8.634;2023-04-25T07:15:57;4.80;99.90
21481;DHT22;10902;48.158;8.634;2023-04-25T07:18:23;4.80;99.90
21481;DHT22;10902;48.158;8.634;2023-04-25T07:20:49;4.70;99.90
21481;DHT22;10902;48.158;8.634;2023-04-25T07:23:14;4.60;99.90
21481;DHT22;10902;48.158;8.634;2023-04-25T07:25:42;4.50;99.90
21481;DHT22;10902;48.158;8.634;2023-04-25T07:28:07;4.50;99.90
21481;DHT22;10902;48.158;8.634;2023-04-25T07:30:33;4.40;99.90
21481;DHT22;10902;48.158;8.634;2023-04-25T07:33:00;4.30;99.90
21481;DHT22;10902;48.158;8.634;2023-04-25T07:35:25;4.30;99.90
21481;DHT22;10902;48.158;8.634;2023-04-25T07:37:51;4.30;99.90
21481;DHT22;10902;48.158;8.634;2023-04-25T07:40:17;4.20;99.90
21481;DHT22;10902;48.158;8.634;2023-04-25T07:42:42;4.10;99.90
21481;DHT22;10902;48.158;8.634;2023-04-25T07:45:08;4.00;99.90
21481;DHT22;10902;48.158;8.634;2023-04-25T07:47:35;3.80;99.90
21481;DHT22;10902;48.158;8.634;2023-04-25T07:50:00;3.80;99.90
21481;DHT22;10902;48.158;8.634;2023-04-25T07:52:26;3.70;99.90
21481;DHT22;10902;48.158;8.634;2023-04-25T07:54:52;3.60;99.90
21481;DHT22;10902;48.158;8.634;2023-04-25T07:57:18;3.40;99.90
21481;DHT22;10902;48.158;8.634;2023-04-25T07:59:44;3.10;99.90
21481;DHT22;10902;48.158;8.634;2023-04-25T08:02:10;3.00;99.90
21481;DHT22;10902;48.158;8.634;2023-04-25T08:04:36;2.80;99.90
21481;DHT22;10902;48.158;8.634;2023-04-25T08:07:01;2.60;99.90
21481;DHT22;10902;48.158;8.634;2023-04-25T08:09:27;2.50;99.90
21481;DHT22;10902;48.158;8.634;2023-04-25T08:11:52;2.50;99.90
21481;DHT22;10902;48.158;8.634;2023-04-25T08:14:18;2.60;99.90
21481;DHT22;10902;48.158;8.634;2023-04-25T08:16:44;2.70;99.90
21481;DHT22;10902;48.158;8.634;2023-04-25T08:19:10;2.70;99.90
21481;DHT22;10902;48.158;8.634;2023-04-25T08:21:39;2.70;99.90
21481;DHT22;10902;48.158;8.634;2023-04-25T08:24:04;2.80;99.90
21481;DHT22;10902;48.158;8.634;2023-04-25T08:26:30;2.80;99.90
21481;DHT22;10902;48.158;8.634;2023-04-25T08:28:56;2.80;99.90
21481;DHT22;10902;48.158;8.634;2023-04-25T08:31:21;2.80;99.90
21481;DHT22;10902;48.158;8.634;2023-04-25T08:33:47;2.90;99.90
21481;DHT22;10902;48.158;8.634;2023-04-25T08:36:12;3.00;99.90
21481;DHT22;10902;48.158;8.634;2023-04-25T08:38:38;3.00;99.90
21481;DHT22;10902;48.158;8.634;2023-04-25T08:41:05;3.00;99.90
21481;DHT22;10902;48.158;8.634;2023-04-25T08:43:32;3.10;99.90
21481;DHT22;10902;48.158;8.634;2023-04-25T08:45:59;3.10;99.90
21481;DHT22;10902;48.158;8.634;2023-04-25T08:48:27;3.30;99.90
21481;DHT22;10902;48.158;8.634;2023-04-25T08:50:56;3.20;99.90
21481;DHT22;10902;48.158;8.634;2023-04-25T08:53:28;3.40;99.90
21481;DHT22;10902;48.158;8.634;2023-04-25T08:55:56;3.60;99.90
21481;DHT22;10902;48.158;8.634;2023-04-25T08:58:23;3.80;99.90
21481;DHT22;10902;48.158;8.634;2023-04-25T09:00:50;3.80;99.90
21481;DHT22;10902;48.158;8.634;2023-04-25T09:03:17;3.80;99.90
21481;DHT22;10902;48.158;8.634;2023-04-25T09:05:42;3.90;99.90
21481;DHT22;10902;48.158;8.634;2023-04-25T09:08:08;3.90;99.90
21481;DHT22;10902;48.158;8.634;2023-04-25T09:10:35;4.10;99.90
21481;DHT22;10902;48.158;8.634;2023-04-25T09:13:08;4.20;99.90
21481;DHT22;10902;48.158;8.634;2023-04-25T09:15:47;4.20;99.90
21481;DHT22;10902;48.158;8.634;2023-04-25T09:18:13;4.30;99.90
21481;DHT22;10902;48.158;8.634;2023-04-25T09:20:43;4.40;99.90
21481;DHT22;10902;48.158;8.634;2023-04-25T09:23:09;4.50;99.90
21481;DHT22;10902;48.158;8.634;2023-04-25T09:25:38;4.50;99.90
21481;DHT22;10902;48.158;8.634;2023-04-25T09:28:08;4.80;99.90
21481;DHT22;10902;48.158;8.634;2023-04-25T09:30:35;4.80;99.90
21481;DHT22;10902;48.158;8.634;2023-04-25T09:33:06;4.90;99.90
21481;DHT22;10902;48.158;8.634;2023-04-25T09:35:47;4.80;99.90
21481;DHT22;10902;48.158;8.634;2023-04-25T09:38:18;5.00;99.90
21481;DHT22;10902;48.158;8.634;2023-04-25T09:40:46;5.00;99.90
21481;DHT22;10902;48.158;8.634;2023-04-25T09:43:24;5.00;99.90
21481;DHT22;10902;48.158;8.634;2023-04-25T09:45:53;5.50;99.90
21481;DHT22;10902;48.158;8.634;2023-04-25T09:48:22;5.80;99.90
21481;DHT22;10902;48.158;8.634;2023-04-25T09:51:07;6.10;99.90
21481;DHT22;10902;48.158;8.634;2023-04-25T09:53:37;5.50;99.90
21481;DHT22;10902;48.158;8.634;2023-04-25T09:56:08;5.20;99.90
21481;DHT22;10902;48.158;8.634;2023-04-25T09:58:35;5.30;99.90
21481;DHT22;10902;48.158;8.634;2023-04-25T10:01:04;5.30;99.90
21481;DHT22;10902;48.158;8.634;2023-04-25T10:03:30;5.50;99.90
21481;DHT22;10902;48.158;8.634;2023-04-25T10:05:59;5.80;99.90
21481;DHT22;10902;48.158;8.634;2023-04-25T10:08:31;6.00;99.90
21481;DHT22;10902;48.158;8.634;2023-04-25T10:10:59;6.00;99.90
21481;DHT22;10902;48.158;8.634;2023-04-25T10:13:27;6.10;99.90
21481;DHT22;10902;48.158;8.634;2023-04-25T10:15:53;6.20;99.90
21481;DHT22;10902;48.158;8.634;2023-04-25T10:18:19;6.40;99.90
21481;DHT22;10902;48.158;8.634;2023-04-25T10:20:46;7.00;99.90
21481;DHT22;10902;48.158;8.634;2023-04-25T10:23:13;6.50;99.90
21481;DHT22;10902;48.158;8.634;2023-04-25T10:25:40;6.30;99.90
21481;DHT22;10902;48.158;8.634;2023-04-25T10:28:06;6.10;99.90
21481;DHT22;10902;48.158;8.634;2023-04-25T10:30:32;6.30;99.90
21481;DHT22;10902;48.158;8.634;2023-04-25T10:32:59;6.10;99.90
21481;DHT22;10902;48.158;8.634;2023-04-25T10:35:29;6.20;99.90
21481;DHT22;10902;48.158;8.634;2023-04-25T10:38:10;6.20;99.90
21481;DHT22;10902;48.158;8.634;2023-04-25T10:40:38;6.20;99.90
21481;DHT22;10902;48.158;8.634;2023-04-25T10:45:58;6.80;99.90
21481;DHT22;10902;48.158;8.634;2023-04-25T10:48:28;6.80;99.90
21481;DHT22;10902;48.158;8.634;2023-04-25T10:51:40;7.00;99.90
21481;DHT22;10902;48.158;8.634;2023-04-25T10:54:03;7.00;99.90
21481;DHT22;10902;48.158;8.634;2023-04-25T10:56:38;7.10;99.90
21481;DHT22;10902;48.158;8.634;2023-04-25T10:59:19;6.90;99.90
21481;DHT22;10902;48.158;8.634;2023-04-25T11:01:46;6.70;99.90
21481;DHT22;10902;48.158;8.634;2023-04-25T11:04:32;6.90;99.90
21481;DHT22;10902;48.158;8.634;2023-04-25T11:07:23;7.30;99.90
21481;DHT22;10902;48.158;8.634;2023-04-25T11:09:52;7.20;99.90
21481;DHT22;10902;48.158;8.634;2023-04-25T11:12:17;7.40;99.90
21481;DHT22;10902;48.158;8.634;2023-04-25T11:14:43;7.20;99.90
21481;DHT22;10902;48.158;8.634;2023-04-25T11:17:09;7.50;99.90
21481;DHT22;10902;48.158;8.634;2023-04-25T11:19:35;7.40;99.90
21481;DHT22;10902;48.158;8.634;2023-04-25T11:22:02;7.10;99.90
21481;DHT22;10902;48.158;8.634;2023-04-25T11:24:28;7.30;99.90
21481;DHT22;10902;48.158;8.634;2023-04-25T11:26:54;7.20;99.90
21481;DHT22;10902;48.158;8.634;2023-04-25T11:29:22;6.90;99.90
21481;DHT22;10902;48.158;8.634;2023-04-25T11:31:48;7.40;99.90
21481;DHT22;10902;48.158;8.634;2023-04-25T11:34:18;7.30;99.90
21481;DHT22;10902;48.158;8.634;2023-04-25T11:36:45;7.40;99.90
21481;DHT22;10902;48.158;8.634;2023-04-25T11:39:10;7.30;99.90
21481;DHT22;10902;48.158;8.634;2023-04-25T11:41:37;7.80;99.90
21481;DHT22;10902;48.158;8.634;2023-04-25T11:44:03;7.80;99.90
21481;DHT22;10902;48.158;8.634;2023-04-25T11:46:29;7.80;99.90
21481;DHT22;10902;48.158;8.634;2023-04-25T11:48:56;7.40;99.90
21481;DHT22;10902;48.158;8.634;2023-04-25T11:51:22;7.30;99.90
21481;DHT22;10902;48.158;8.634;2023-04-25T11:53:48;7.30;99.90
21481;DHT22;10902;48.158;8.634;2023-04-25T11:56:13;7.40;99.90
21481;DHT22;10902;48.158;8.634;2023-04-25T11:58:59;7.40;99.90
21481;DHT22;10902;48.158;8.634;2023-04-25T12:01:31;7.60;99.90
21481;DHT22;10902;48.158;8.634;2023-04-25T12:03:58;8.10;99.90
21481;DHT22;10902;48.158;8.634;2023-04-25T12:06:28;8.30;99.90
21481;DHT22;10902;48.158;8.634;2023-04-25T12:09:04;8.50;99.90
21481;DHT22;10902;48.158;8.634;2023-04-25T12:11:31;8.70;99.90
21481;DHT22;10902;48.158;8.634;2023-04-25T12:14:03;8.30;99.90
21481;DHT22;10902;48.158;8.634;2023-04-25T12:16:29;8.30;99.90
21481;DHT22;10902;48.158;8.634;2023-04-25T12:18:56;8.70;99.90
21481;DHT22;10902;48.158;8.634;2023-04-25T12:21:22;8.60;99.90
21481;DHT22;10902;48.158;8.634;2023-04-25T12:23:48;8.40;99.90
21481;DHT22;10902;48.158;8.634;2023-04-25T12:26:13;8.80;99.90
21481;DHT22;10902;48.158;8.634;2023-04-25T12:28:39;9.10;99.90
21481;DHT22;10902;48.158;8.634;2023-04-25T12:31:06;9.60;99.90
21481;DHT22;10902;48.158;8.634;2023-04-25T12:33:36;9.30;99.90
21481;DHT22;10902;48.158;8.634;2023-04-25T12:36:03;9.00;99.90
21481;DHT22;10902;48.158;8.634;2023-04-25T12:38:37;8.60;99.90
21481;DHT22;10902;48.158;8.634;2023-04-25T12:41:02;8.60;99.90
21481;DHT22;10902;48.158;8.634;2023-04-25T12:43:28;9.10;99.90
21481;DHT22;10902;48.158;8.634;2023-04-25T12:45:55;9.30;99.90
21481;DHT22;10902;48.158;8.634;2023-04-25T12:48:21;10.60;99.90
21481;DHT22;10902;48.158;8.634;2023-04-25T12:50:48;11.10;99.90
21481;DHT22;10902;48.158;8.634;2023-04-25T12:53:15;10.80;99.90
21481;DHT22;10902;48.158;8.634;2023-04-25T12:55:41;11.80;99.90
21481;DHT22;10902;48.158;8.634;2023-04-25T12:58:07;12.30;99.90
21481;DHT22;10902;48.158;8.634;2023-04-25T13:00:33;13.20;99.90
21481;DHT22;10902;48.158;8.634;2023-04-25T13:02:58;12.90;99.90
21481;DHT22;10902;48.158;8.634;2023-04-25T13:05:25;12.20;99.90
21481;DHT22;10902;48.158;8.634;2023-04-25T13:07:50;10.90;99.90
21481;DHT22;10902;48.158;8.634;2023-04-25T13:10:17;10.10;99.90
21481;DHT22;10902;48.158;8.634;2023-04-25T13:12:43;9.50;99.90
21481;DHT22;10902;48.158;8.634;2023-04-25T13:15:09;9.50;99.90
21481;DHT22;10902;48.158;8.634;2023-04-25T13:17:37;9.70;99.90
21481;DHT22;10902;48.158;8.634;2023-04-25T13:20:06;9.60;99.90
21481;DHT22;10902;48.158;8.634;2023-04-25T13:22:34;9.70;99.90
21481;DHT22;10902;48.158;8.634;2023-04-25T13:25:02;10.10;99.90
21481;DHT22;10902;48.158;8.634;2023-04-25T13:27:28;10.50;99.90
21481;DHT22;10902;48.158;8.634;2023-04-25T13:29:54;10.70;99.90
21481;DHT22;10902;48.158;8.634;2023-04-25T13:32:19;11.00;99.90
21481;DHT22;10902;48.158;8.634;2023-04-25T13:34:45;10.70;99.90
21481;DHT22;10902;48.158;8.634;2023-04-25T13:37:11;10.40;99.90
21481;DHT22;10902;48.158;8.634;2023-04-25T13:39:36;10.50;99.90
21481;DHT22;10902;48.158;8.634;2023-04-25T13:42:02;12.00;99.90
21481;DHT22;10902;48.158;8.634;2023-04-25T13:44:28;13.50;99.90
21481;DHT22;10902;48.158;8.634;2023-04-25T13:46:54;12.60;99.90
21481;DHT22;10902;48.158;8.634;2023-04-25T13:49:20;11.10;99.90
21481;DHT22;10902;48.158;8.634;2023-04-25T13:51:45;10.50;99.90
21481;DHT22;10902;48.158;8.634;2023-04-25T13:54:11;10.20;99.90
21481;DHT22;10902;48.158;8.634;2023-04-25T13:56:36;10.10;99.90
21481;DHT22;10902;48.158;8.634;2023-04-25T13:59:02;10.90;99.90
21481;DHT22;10902;48.158;8.634;2023-04-25T14:01:28;11.30;99.90
21481;DHT22;10902;48.158;8.634;2023-04-25T14:03:55;10.30;99.90
21481;DHT22;10902;48.158;8.634;2023-04-25T14:06:21;10.50;99.90
21481;DHT22;10902;48.158;8.634;2023-04-25T14:08:49;10.30;99.90
21481;DHT22;10902;48.158;8.634;2023-04-25T14:11:15;10.10;99.90
21481;DHT22;10902;48.158;8.634;2023-04-25T14:13:43;9.90;99.90
21481;DHT22;10902;48.158;8.634;2023-04-25T14:16:09;10.00;99.90
21481;DHT22;10902;48.158;8.634;2023-04-25T14:18:35;9.60;99.90
21481;DHT22;10902;48.158;8.634;2023-04-25T14:21:00;9.60;99.90
21481;DHT22;10902;48.158;8.634;2023-04-25T14:23:26;9.30;99.90
21481;DHT22;10902;48.158;8.634;2023-04-25T14:25:52;9.60;99.90
21481;DHT22;10902;48.158;8.634;2023-04-25T14:28:17;9.80;99.90
21481;DHT22;10902;48.158;8.634;2023-04-25T14:30:43;9.50;99.90
21481;DHT22;10902;48.158;8.634;2023-04-25T14:33:09;9.30;99.90
21481;DHT22;10902;48.158;8.634;2023-04-25T14:35:35;9.30;99.90
21481;DHT22;10902;48.158;8.634;2023-04-25T14:38:00;9.40;99.90
21481;DHT22;10902;48.158;8.634;2023-04-25T14:40:26;9.70;99.90
21481;DHT22;10902;48.158;8.634;2023-04-25T14:42:52;9.50;99.90
21481;DHT22;10902;48.158;8.634;2023-04-25T14:45:17;9.30;99.90
21481;DHT22;10902;48.158;8.634;2023-04-25T14:47:43;9.20;99.90
21481;DHT22;10902;48.158;8.634;2023-04-25T14:50:09;9.00;99.90
21481;DHT22;10902;48.158;8.634;2023-04-25T14:52:35;9.10;99.90
21481;DHT22;10902;48.158;8.634;2023-04-25T14:55:01;8.90;99.90
21481;DHT22;10902;48.158;8.634;2023-04-25T14:57:31;8.30;99.90
21481;DHT22;10902;48.158;8.634;2023-04-25T14:59:57;8.60;99.90
21481;DHT22;10902;48.158;8.634;2023-04-25T15:02:23;9.00;99.90
21481;DHT22;10902;48.158;8.634;2023-04-25T15:04:49;8.80;99.90
21481;DHT22;10902;48.158;8.634;2023-04-25T15:07:16;9.00;99.90
21481;DHT22;10902;48.158;8.634;2023-04-25T15:09:41;8.80;99.90
21481;DHT22;10902;48.158;8.634;2023-04-25T15:12:07;9.10;99.90
21481;DHT22;10902;48.158;8.634;2023-04-25T15:14:33;9.30;99.90
21481;DHT22;10902;48.158;8.634;2023-04-25T15:16:59;9.00;99.90
21481;DHT22;10902;48.158;8.634;2023-04-25T15:19:25;8.20;99.90
21481;DHT22;10902;48.158;8.634;2023-04-25T15:21:51;7.40;99.90
21481;DHT22;10902;48.158;8.634;2023-04-25T15:24:17;6.80;99.90
21481;DHT22;10902;48.158;8.634;2023-04-25T15:26:43;6.50;99.90
21481;DHT22;10902;48.158;8.634;2023-04-25T15:29:09;6.40;99.90
21481;DHT22;10902;48.158;8.634;2023-04-25T15:31:35;6.60;99.90
21481;DHT22;10902;48.158;8.634;2023-04-25T15:34:01;7.00;99.90
21481;DHT22;10902;48.158;8.634;2023-04-25T15:36:26;9.00;99.90
21481;DHT22;10902;48.158;8.634;2023-04-25T15:38:52;11.60;99.90
21481;DHT22;10902;48.158;8.634;2023-04-25T15:41:17;12.40;99.90
21481;DHT22;10902;48.158;8.634;2023-04-25T15:43:43;12.30;99.90
21481;DHT22;10902;48.158;8.634;2023-04-25T15:46:09;12.30;99.90